sensor_id;sensor_type;location;lat;lon;timestamp;temperature;humidity
26599;DHT22;14240;51.064;16.612;2023-02-15T00:02:25;0.90;99.90
26599;DHT22;14240;51.064;16.612;2023-02-15T00:04:50;0.90;99.90
26599;DHT22;14240;51.064;16.612;2023-02-15T00:07:18;0.90;99.90
26599;DHT22;14240;51.064;16.612;2023-02-15T00:09:45;0.90;99.90
26599;DHT22;14240;51.064;16.612;2023-02-15T00:12:11;0.90;99.90
26599;DHT22;14240;51.064;16.612;2023-02-15T00:14:37;0.90;99.90
26599;DHT22;14240;51.064;16.612;2023-02-15T00:17:02;0.90;99.90
26599;DHT22;14240;51.064;16.612;2023-02-15T00:19:28;0.90;99.90
26599;DHT22;14240;51.064;16.612;2023-02-15T00:21:54;0.80;99.90
26599;DHT22;14240;51.064;16.612;2023-02-15T00:24:19;0.80;99.90
26599;DHT22;14240;51.064;16.612;2023-02-15T00:26:46;0.80;99.90
26599;DHT22;14240;51.064;16.612;2023-02-15T00:29:14;0.80;99.90
26599;DHT22;14240;51.064;16.612;2023-02-15T00:31:42;0.80;99.90
26599;DHT22;14240;51.064;16.612;2023-02-15T00:34:15;0.80;99.90
26599;DHT22;14240;51.064;16.612;2023-02-15T00:36:41;0.80;99.90
26599;DHT22;14240;51.064;16.612;2023-02-15T00:39:07;0.80;99.90
26599;DHT22;14240;51.064;16.612;2023-02-15T00:41:33;0.80;99.90
26599;DHT22;14240;51.064;16.612;2023-02-15T00:43:59;0.70;99.90
26599;DHT22;14240;51.064;16.612;2023-02-15T00:46:24;0.80;99.90
26599;DHT22;14240;51.064;16.612;2023-02-15T00:48:50;0.80;99.90
26599;DHT22;14240;51.064;16.612;2023-02-15T00:51:16;0.80;99.90
26599;DHT22;14240;51.064;16.612;2023-02-15T00:53:43;0.80;99.90
26599;DHT22;14240;51.064;16.612;2023-02-15T00:56:10;0.70;99.90
26599;DHT22;14240;51.064;16.612;2023-02-15T00:58:35;0.80;99.90
26599;DHT22;14240;51.064;16.612;2023-02-15T01:01:09;0.70;99.90
26599;DHT22;14240;51.064;16.612;2023-02-15T01:03:36;0.70;99.90
26599;DHT22;14240;51.064;16.612;2023-02-15T01:06:03;0.70;99.90
26599;DHT22;14240;51.064;16.612;2023-02-15T01:08:29;0.70;99.90
26599;DHT22;14240;51.064;16.612;2023-02-15T01:10:55;0.70;99.90
26599;DHT22;14240;51.064;16.612;2023-02-15T01:13:21;0.70;99.90
26599;DHT22;14240;51.064;16.612;2023-02-15T01:15:53;0.70;99.90
26599;DHT22;14240;51.064;16.612;2023-02-15T01:18:22;0.70;99.90
26599;DHT22;14240;51.064;16.612;2023-02-15T01:20:48;0.60;99.90
26599;DHT22;14240;51.064;16.612;2023-02-15T01:23:14;0.60;99.90
26599;DHT22;14240;51.064;16.612;2023-02-15T01:25:40;1.10;99.90
26599;DHT22;14240;51.064;16.612;2023-02-15T01:28:05;0.60;99.90
26599;DHT22;14240;51.064;16.612;2023-02-15T01:30:32;0.60;99.90
26599;DHT22;14240;51.064;16.612;2023-02-15T01:32:57;0.60;99.90
26599;DHT22;14240;51.064;16.612;2023-02-15T01:35:24;0.60;99.90
26599;DHT22;14240;51.064;16.612;2023-02-15T01:37:49;0.60;99.90
26599;DHT22;14240;51.064;16.612;2023-02-15T01:40:18;0.60;99.90
26599;DHT22;14240;51.064;16.612;2023-02-15T01:42:44;0.50;99.90
26599;DHT22;14240;51.064;16.612;2023-02-15T01:45:30;0.50;99.90
26599;DHT22;14240;51.064;16.612;2023-02-15T01:48:05;0.40;99.90
26599;DHT22;14240;51.064;16.612;2023-02-15T01:50:37;0.40;99.90
26599;DHT22;14240;51.064;16.612;2023-02-15T01:53:16;0.40;99.90
26599;DHT22;14240;51.064;16.612;2023-02-15T01:55:54;0.40;99.90
26599;DHT22;14240;51.064;16.612;2023-02-15T01:58:22;0.40;99.90
26599;DHT22;14240;51.064;16.612;2023-02-15T02:00:48;0.30;99.90
26599;DHT22;14240;51.064;16.612;2023-02-15T02:03:14;0.30;99.90
26599;DHT22;14240;51.064;16.612;2023-02-15T02:05:40;0.30;99.90
26599;DHT22;14240;51.064;16.612;2023-02-15T02:08:07;0.30;99.90
26599;DHT22;14240;51.064;16.612;2023-02-15T02:10:35;0.30;99.90
26599;DHT22;14240;51.064;16.612;2023-02-15T02:13:06;0.30;99.90
26599;DHT22;14240;51.064;16.612;2023-02-15T02:15:49;0.30;99.90
26599;DHT22;14240;51.064;16.612;2023-02-15T02:18:46;0.30;99.90
26599;DHT22;14240;51.064;16.612;2023-02-15T02:24:23;0.20;99.90
26599;DHT22;14240;51.064;16.612;2023-02-15T02:41:38;0.10;99.90
26599;DHT22;14240;51.064;16.612;2023-02-15T02:44:49;0.10;99.90
26599;DHT22;14240;51.064;16.612;2023-02-15T02:49:44;0.10;99.90
26599;DHT22;14240;51.064;16.612;2023-02-15T02:52:36;0.10;99.90
26599;DHT22;14240;51.064;16.612;2023-02-15T02:57:34;0.00;99.90
26599;DHT22;14240;51.064;16.612;2023-02-15T03:00:03;0.00;99.90
26599;DHT22;14240;51.064;16.612;2023-02-15T03:02:34;0.00;99.90
26599;DHT22;14240;51.064;16.612;2023-02-15T03:05:07;0.00;99.90
26599;DHT22;14240;51.064;16.612;2023-02-15T03:07:35;0.00;99.90
26599;DHT22;14240;51.064;16.612;2023-02-15T03:10:04;0.00;99.90
26599;DHT22;14240;51.064;16.612;2023-02-15T03:12:36;0.00;99.90
26599;DHT22;14240;51.064;16.612;2023-02-15T03:17:34;0.00;99.90
26599;DHT22;14240;51.064;16.612;2023-02-15T03:20:11;0.00;99.90
26599;DHT22;14240;51.064;16.612;2023-02-15T03:22:51;0.00;99.90
26599;DHT22;14240;51.064;16.612;2023-02-15T03:25:27;-0.10;99.90
26599;DHT22;14240;51.064;16.612;2023-02-15T03:27:59;-0.10;99.90
26599;DHT22;14240;51.064;16.612;2023-02-15T03:30:28;-0.10;99.90
26599;DHT22;14240;51.064;16.612;2023-02-15T03:32:57;-0.10;99.90
26599;DHT22;14240;51.064;16.612;2023-02-15T03:35:26;-0.10;99.90
26599;DHT22;14240;51.064;16.612;2023-02-15T03:37:57;-0.10;99.90
26599;DHT22;14240;51.064;16.612;2023-02-15T03:40:38;-0.10;99.90
26599;DHT22;14240;51.064;16.612;2023-02-15T03:48:53;-0.10;99.90
26599;DHT22;14240;51.064;16.612;2023-02-15T03:51:27;-0.10;99.90
26599;DHT22;14240;51.064;16.612;2023-02-15T03:56:35;-0.10;99.90
26599;DHT22;14240;51.064;16.612;2023-02-15T03:59:02;-0.10;99.90
26599;DHT22;14240;51.064;16.612;2023-02-15T04:02:03;-0.20;99.90
26599;DHT22;14240;51.064;16.612;2023-02-15T04:06:59;-0.20;99.90
26599;DHT22;14240;51.064;16.612;2023-02-15T04:09:24;-0.20;99.90
26599;DHT22;14240;51.064;16.612;2023-02-15T04:12:09;-0.20;99.90
26599;DHT22;14240;51.064;16.612;2023-02-15T04:14:35;-0.20;99.90
26599;DHT22;14240;51.064;16.612;2023-02-15T04:17:19;-0.20;99.90
26599;DHT22;14240;51.064;16.612;2023-02-15T04:19:44;-0.20;99.90
26599;DHT22;14240;51.064;16.612;2023-02-15T04:22:29;-0.20;99.90
26599;DHT22;14240;51.064;16.612;2023-02-15T04:25:13;-0.30;99.90
26599;DHT22;14240;51.064;16.612;2023-02-15T04:27:43;-0.30;99.90
26599;DHT22;14240;51.064;16.612;2023-02-15T04:30:10;-0.30;99.90
26599;DHT22;14240;51.064;16.612;2023-02-15T04:32:35;-0.30;99.90
26599;DHT22;14240;51.064;16.612;2023-02-15T04:35:01;-0.30;99.90
26599;DHT22;14240;51.064;16.612;2023-02-15T04:37:27;-0.30;99.90
26599;DHT22;14240;51.064;16.612;2023-02-15T04:39:52;-0.30;99.90
26599;DHT22;14240;51.064;16.612;2023-02-15T04:42:18;-0.30;99.90
26599;DHT22;14240;51.064;16.612;2023-02-15T04:44:44;-0.30;99.90
26599;DHT22;14240;51.064;16.612;2023-02-15T04:47:09;-0.30;99.90
26599;DHT22;14240;51.064;16.612;2023-02-15T04:49:35;-0.40;99.90
26599;DHT22;14240;51.064;16.612;2023-02-15T04:52:00;-0.30;99.90
26599;DHT22;14240;51.064;16.612;2023-02-15T04:54:26;-0.40;99.90
26599;DHT22;14240;51.064;16.612;2023-02-15T04:56:52;-0.40;99.90
26599;DHT22;14240;51.064;16.612;2023-02-15T04:59:17;-0.40;99.90
26599;DHT22;14240;51.064;16.612;2023-02-15T05:01:43;-0.40;99.90
26599;DHT22;14240;51.064;16.612;2023-02-15T05:04:09;-0.40;99.90
26599;DHT22;14240;51.064;16.612;2023-02-15T05:06:34;-0.40;99.90
26599;DHT22;14240;51.064;16.612;2023-02-15T05:09:00;-0.40;99.90
26599;DHT22;14240;51.064;16.612;2023-02-15T05:11:27;-0.30;99.90
26599;DHT22;14240;51.064;16.612;2023-02-15T05:13:52;-0.40;99.90
26599;DHT22;14240;51.064;16.612;2023-02-15T05:16:18;-0.40;99.90
26599;DHT22;14240;51.064;16.612;2023-02-15T05:18:43;-0.40;99.90
26599;DHT22;14240;51.064;16.612;2023-02-15T05:21:09;-0.40;99.90
26599;DHT22;14240;51.064;16.612;2023-02-15T05:23:35;-0.50;99.90
26599;DHT22;14240;51.064;16.612;2023-02-15T05:26:01;-0.50;99.90
26599;DHT22;14240;51.064;16.612;2023-02-15T05:28:45;-0.50;99.90
26599;DHT22;14240;51.064;16.612;2023-02-15T05:31:13;-0.50;99.90
26599;DHT22;14240;51.064;16.612;2023-02-15T05:33:40;-0.50;99.90
26599;DHT22;14240;51.064;16.612;2023-02-15T05:36:06;-0.50;99.90
26599;DHT22;14240;51.064;16.612;2023-02-15T05:38:33;0.10;99.90
26599;DHT22;14240;51.064;16.612;2023-02-15T05:40:58;-0.50;99.90
26599;DHT22;14240;51.064;16.612;2023-02-15T05:43:25;-0.50;99.90
26599;DHT22;14240;51.064;16.612;2023-02-15T05:45:52;-0.50;99.90
26599;DHT22;14240;51.064;16.612;2023-02-15T05:48:19;-0.60;99.90
26599;DHT22;14240;51.064;16.612;2023-02-15T05:50:45;-0.60;99.90
26599;DHT22;14240;51.064;16.612;2023-02-15T05:53:11;-0.60;99.90
26599;DHT22;14240;51.064;16.612;2023-02-15T05:55:40;-0.60;99.90
26599;DHT22;14240;51.064;16.612;2023-02-15T05:58:07;-0.60;99.90
26599;DHT22;14240;51.064;16.612;2023-02-15T06:00:33;-0.60;99.90
26599;DHT22;14240;51.064;16.612;2023-02-15T06:02:59;-0.60;99.90
26599;DHT22;14240;51.064;16.612;2023-02-15T06:05:24;-0.60;99.90
26599;DHT22;14240;51.064;16.612;2023-02-15T06:07:50;-0.60;99.90
26599;DHT22;14240;51.064;16.612;2023-02-15T06:10:16;-0.60;99.90
26599;DHT22;14240;51.064;16.612;2023-02-15T06:12:41;-0.60;99.90
26599;DHT22;14240;51.064;16.612;2023-02-15T06:15:07;-0.60;99.90
26599;DHT22;14240;51.064;16.612;2023-02-15T06:17:33;-0.60;99.90
26599;DHT22;14240;51.064;16.612;2023-02-15T06:19:58;-0.60;99.90
26599;DHT22;14240;51.064;16.612;2023-02-15T06:22:24;-0.60;99.90
26599;DHT22;14240;51.064;16.612;2023-02-15T06:24:49;-0.60;99.90
26599;DHT22;14240;51.064;16.612;2023-02-15T06:27:16;-0.60;99.90
26599;DHT22;14240;51.064;16.612;2023-02-15T06:29:42;-0.60;99.90
26599;DHT22;14240;51.064;16.612;2023-02-15T06:32:07;-0.60;99.90
26599;DHT22;14240;51.064;16.612;2023-02-15T06:34:33;-0.60;99.90
26599;DHT22;14240;51.064;16.612;2023-02-15T06:36:58;-0.60;99.90
26599;DHT22;14240;51.064;16.612;2023-02-15T06:39:24;-0.50;99.90
26599;DHT22;14240;51.064;16.612;2023-02-15T06:41:50;-0.50;99.90
26599;DHT22;14240;51.064;16.612;2023-02-15T06:44:15;-0.50;99.90
26599;DHT22;14240;51.064;16.612;2023-02-15T06:46:41;-0.50;99.90
26599;DHT22;14240;51.064;16.612;2023-02-15T06:49:06;-0.40;99.90
26599;DHT22;14240;51.064;16.612;2023-02-15T06:51:32;-0.40;99.90
26599;DHT22;14240;51.064;16.612;2023-02-15T06:53:59;-0.30;99.90
26599;DHT22;14240;51.064;16.612;2023-02-15T06:56:25;-0.30;99.90
26599;DHT22;14240;51.064;16.612;2023-02-15T06:58:51;-0.20;99.90
26599;DHT22;14240;51.064;16.612;2023-02-15T07:01:18;-0.20;99.90
26599;DHT22;14240;51.064;16.612;2023-02-15T07:03:43;-0.10;99.90
26599;DHT22;14240;51.064;16.612;2023-02-15T07:06:09;0.10;99.90
26599;DHT22;14240;51.064;16.612;2023-02-15T07:08:36;0.30;99.90
26599;DHT22;14240;51.064;16.612;2023-02-15T07:11:03;0.60;99.90
26599;DHT22;14240;51.064;16.612;2023-02-15T07:13:47;1.00;99.90
26599;DHT22;14240;51.064;16.612;2023-02-15T07:16:13;1.40;99.90
26599;DHT22;14240;51.064;16.612;2023-02-15T07:18:39;1.80;99.90
26599;DHT22;14240;51.064;16.612;2023-02-15T07:21:06;2.10;99.90
26599;DHT22;14240;51.064;16.612;2023-02-15T07:23:36;2.40;99.90
26599;DHT22;14240;51.064;16.612;2023-02-15T07:26:02;2.70;99.90
26599;DHT22;14240;51.064;16.612;2023-02-15T07:28:28;3.00;99.90
26599;DHT22;14240;51.064;16.612;2023-02-15T07:30:54;3.30;99.90
26599;DHT22;14240;51.064;16.612;2023-02-15T07:33:20;3.50;99.90
26599;DHT22;14240;51.064;16.612;2023-02-15T07:35:56;3.80;99.90
26599;DHT22;14240;51.064;16.612;2023-02-15T07:38:29;3.90;99.90
26599;DHT22;14240;51.064;16.612;2023-02-15T07:40:59;4.10;99.90
26599;DHT22;14240;51.064;16.612;2023-02-15T07:43:25;4.10;99.90
26599;DHT22;14240;51.064;16.612;2023-02-15T07:45:51;4.30;99.90
26599;DHT22;14240;51.064;16.612;2023-02-15T07:48:16;4.50;99.90
26599;DHT22;14240;51.064;16.612;2023-02-15T07:50:43;4.70;99.90
26599;DHT22;14240;51.064;16.612;2023-02-15T07:53:08;4.90;99.90
26599;DHT22;14240;51.064;16.612;2023-02-15T07:55:34;5.10;99.90
26599;DHT22;14240;51.064;16.612;2023-02-15T07:57:59;5.30;99.90
26599;DHT22;14240;51.064;16.612;2023-02-15T08:00:25;5.70;99.90
26599;DHT22;14240;51.064;16.612;2023-02-15T08:02:52;6.10;99.90
26599;DHT22;14240;51.064;16.612;2023-02-15T08:05:42;6.20;99.90
26599;DHT22;14240;51.064;16.612;2023-02-15T08:08:09;6.30;99.90
26599;DHT22;14240;51.064;16.612;2023-02-15T08:11:13;6.30;99.90
26599;DHT22;14240;51.064;16.612;2023-02-15T08:14:00;6.40;99.90
26599;DHT22;14240;51.064;16.612;2023-02-15T08:16:47;6.50;99.90
26599;DHT22;14240;51.064;16.612;2023-02-15T08:19:16;6.80;99.90
26599;DHT22;14240;51.064;16.612;2023-02-15T08:21:45;6.90;99.90
26599;DHT22;14240;51.064;16.612;2023-02-15T08:24:14;7.10;99.90
26599;DHT22;14240;51.064;16.612;2023-02-15T08:26:41;7.30;99.90
26599;DHT22;14240;51.064;16.612;2023-02-15T08:29:09;7.80;99.90
26599;DHT22;14240;51.064;16.612;2023-02-15T08:31:34;8.50;99.90
26599;DHT22;14240;51.064;16.612;2023-02-15T08:34:00;9.40;99.90
26599;DHT22;14240;51.064;16.612;2023-02-15T08:36:29;10.20;99.90
26599;DHT22;14240;51.064;16.612;2023-02-15T08:38:57;10.80;99.90
26599;DHT22;14240;51.064;16.612;2023-02-15T08:41:28;11.10;99.90
26599;DHT22;14240;51.064;16.612;2023-02-15T08:43:59;11.30;99.90
26599;DHT22;14240;51.064;16.612;2023-02-15T08:46:28;11.40;99.90
26599;DHT22;14240;51.064;16.612;2023-02-15T08:48:54;11.30;99.90
26599;DHT22;14240;51.064;16.612;2023-02-15T08:51:27;11.30;99.90
26599;DHT22;14240;51.064;16.612;2023-02-15T08:53:59;11.60;99.90
26599;DHT22;14240;51.064;16.612;2023-02-15T08:56:27;12.00;99.90
26599;DHT22;14240;51.064;16.612;2023-02-15T08:58:54;12.40;99.90
26599;DHT22;14240;51.064;16.612;2023-02-15T09:01:23;12.70;99.90
26599;DHT22;14240;51.064;16.612;2023-02-15T09:03:49;13.50;99.90
26599;DHT22;14240;51.064;16.612;2023-02-15T09:06:16;14.30;99.90
26599;DHT22;14240;51.064;16.612;2023-02-15T09:08:42;15.10;99.90
26599;DHT22;14240;51.064;16.612;2023-02-15T09:11:18;15.80;99.90
26599;DHT22;14240;51.064;16.612;2023-02-15T09:14:10;16.60;99.20
26599;DHT22;14240;51.064;16.612;2023-02-15T09:16:36;17.30;97.80
26599;DHT22;14240;51.064;16.612;2023-02-15T09:19:03;18.10;96.20
26599;DHT22;14240;51.064;16.612;2023-02-15T09:21:35;18.70;94.20
26599;DHT22;14240;51.064;16.612;2023-02-15T09:24:04;19.10;92.10
26599;DHT22;14240;51.064;16.612;2023-02-15T09:26:32;19.50;90.20
26599;DHT22;14240;51.064;16.612;2023-02-15T09:28:59;19.80;88.10
26599;DHT22;14240;51.064;16.612;2023-02-15T09:31:34;20.20;86.70
26599;DHT22;14240;51.064;16.612;2023-02-15T09:34:02;20.70;83.20
26599;DHT22;14240;51.064;16.612;2023-02-15T09:36:31;21.10;80.60
26599;DHT22;14240;51.064;16.612;2023-02-15T09:39:11;21.50;78.20
26599;DHT22;14240;51.064;16.612;2023-02-15T09:44:47;22.30;73.80
26599;DHT22;14240;51.064;16.612;2023-02-15T10:00:30;23.50;63.80
26599;DHT22;14240;51.064;16.612;2023-02-15T10:03:24;23.60;61.80
26599;DHT22;14240;51.064;16.612;2023-02-15T10:11:48;23.30;60.20
26599;DHT22;14240;51.064;16.612;2023-02-15T10:28:23;19.00;64.10
26599;DHT22;14240;51.064;16.612;2023-02-15T10:30:51;18.30;64.70
26599;DHT22;14240;51.064;16.612;2023-02-15T10:47:23;15.30;71.50
26599;DHT22;14240;51.064;16.612;2023-02-15T10:52:59;14.60;73.70
26599;DHT22;14240;51.064;16.612;2023-02-15T11:04:56;13.70;75.70
26599;DHT22;14240;51.064;16.612;2023-02-15T11:06:53;13.50;76.20
26599;DHT22;14240;51.064;16.612;2023-02-15T11:09:22;13.30;77.20
26599;DHT22;14240;51.064;16.612;2023-02-15T11:11:52;13.20;78.10
26599;DHT22;14240;51.064;16.612;2023-02-15T11:17:05;12.90;79.10
26599;DHT22;14240;51.064;16.612;2023-02-15T11:19:41;12.50;79.20
26599;DHT22;14240;51.064;16.612;2023-02-15T11:22:09;12.70;79.70
26599;DHT22;14240;51.064;16.612;2023-02-15T11:24:43;12.60;80.10
26599;DHT22;14240;51.064;16.612;2023-02-15T11:27:20;12.50;81.10
26599;DHT22;14240;51.064;16.612;2023-02-15T11:30:13;12.40;81.20
26599;DHT22;14240;51.064;16.612;2023-02-15T11:32:42;12.30;81.20
26599;DHT22;14240;51.064;16.612;2023-02-15T11:37:43;12.10;82.70
26599;DHT22;14240;51.064;16.612;2023-02-15T11:40:48;12.00;83.50
26599;DHT22;14240;51.064;16.612;2023-02-15T11:43:28;11.80;83.90
26599;DHT22;14240;51.064;16.612;2023-02-15T11:45:56;11.80;84.90
26599;DHT22;14240;51.064;16.612;2023-02-15T11:48:22;11.70;85.70
26599;DHT22;14240;51.064;16.612;2023-02-15T11:50:48;11.60;86.20
26599;DHT22;14240;51.064;16.612;2023-02-15T11:53:16;11.50;86.70
26599;DHT22;14240;51.064;16.612;2023-02-15T11:55:44;11.40;87.70
26599;DHT22;14240;51.064;16.612;2023-02-15T11:58:31;11.40;88.00
26599;DHT22;14240;51.064;16.612;2023-02-15T12:03:51;11.30;88.60
26599;DHT22;14240;51.064;16.612;2023-02-15T12:09:27;11.20;89.50
26599;DHT22;14240;51.064;16.612;2023-02-15T12:11:47;11.20;89.70
26599;DHT22;14240;51.064;16.612;2023-02-15T12:14:13;11.10;90.00
26599;DHT22;14240;51.064;16.612;2023-02-15T12:16:50;11.10;90.10
26599;DHT22;14240;51.064;16.612;2023-02-15T12:19:32;11.00;90.00
26599;DHT22;14240;51.064;16.612;2023-02-15T12:22:02;10.90;90.20
26599;DHT22;14240;51.064;16.612;2023-02-15T12:24:32;11.00;90.70
26599;DHT22;14240;51.064;16.612;2023-02-15T12:27:03;10.90;90.70
26599;DHT22;14240;51.064;16.612;2023-02-15T12:29:41;10.80;90.40
26599;DHT22;14240;51.064;16.612;2023-02-15T12:32:21;10.70;90.40
26599;DHT22;14240;51.064;16.612;2023-02-15T12:34:47;10.70;90.80
26599;DHT22;14240;51.064;16.612;2023-02-15T12:37:21;10.70;90.90
26599;DHT22;14240;51.064;16.612;2023-02-15T12:39:56;10.70;91.00
26599;DHT22;14240;51.064;16.612;2023-02-15T12:42:26;10.70;91.10
26599;DHT22;14240;51.064;16.612;2023-02-15T12:45:04;10.70;91.10
26599;DHT22;14240;51.064;16.612;2023-02-15T12:47:44;10.70;91.30
26599;DHT22;14240;51.064;16.612;2023-02-15T12:50:31;10.60;91.30
26599;DHT22;14240;51.064;16.612;2023-02-15T12:53:31;10.60;91.30
26599;DHT22;14240;51.064;16.612;2023-02-15T12:56:05;10.70;91.80
26599;DHT22;14240;51.064;16.612;2023-02-15T12:58:33;10.70;91.80
26599;DHT22;14240;51.064;16.612;2023-02-15T13:03:34;10.70;92.20
26599;DHT22;14240;51.064;16.612;2023-02-15T13:06:01;10.60;91.90
26599;DHT22;14240;51.064;16.612;2023-02-15T13:08:34;10.60;91.80
26599;DHT22;14240;51.064;16.612;2023-02-15T13:11:11;10.60;92.00
26599;DHT22;14240;51.064;16.612;2023-02-15T13:14:01;10.50;92.00
26599;DHT22;14240;51.064;16.612;2023-02-15T13:16:47;10.50;92.20
26599;DHT22;14240;51.064;16.612;2023-02-15T13:19:17;10.50;91.90
26599;DHT22;14240;51.064;16.612;2023-02-15T13:21:46;10.40;92.10
26599;DHT22;14240;51.064;16.612;2023-02-15T13:26:49;10.40;92.50
26599;DHT22;14240;51.064;16.612;2023-02-15T13:29:31;10.40;92.40
26599;DHT22;14240;51.064;16.612;2023-02-15T13:32:06;10.40;92.60
26599;DHT22;14240;51.064;16.612;2023-02-15T13:34:36;10.40;92.60
26599;DHT22;14240;51.064;16.612;2023-02-15T13:39:41;10.40;93.00
26599;DHT22;14240;51.064;16.612;2023-02-15T13:42:20;10.20;93.20
26599;DHT22;14240;51.064;16.612;2023-02-15T13:45:13;10.30;93.20
26599;DHT22;14240;51.064;16.612;2023-02-15T13:55:36;10.10;93.80
26599;DHT22;14240;51.064;16.612;2023-02-15T14:23:56;10.00;96.10
26599;DHT22;14240;51.064;16.612;2023-02-15T14:32:04;9.90;96.80
26599;DHT22;14240;51.064;16.612;2023-02-15T14:37:10;9.80;97.20
26599;DHT22;14240;51.064;16.612;2023-02-15T14:39:46;9.80;97.40
26599;DHT22;14240;51.064;16.612;2023-02-15T14:45:29;9.80;97.70
26599;DHT22;14240;51.064;16.612;2023-02-15T14:50:48;9.70;98.10
26599;DHT22;14240;51.064;16.612;2023-02-15T14:58:36;9.60;98.90
26599;DHT22;14240;51.064;16.612;2023-02-15T15:01:09;9.50;99.00
26599;DHT22;14240;51.064;16.612;2023-02-15T15:03:36;9.40;99.30
26599;DHT22;14240;51.064;16.612;2023-02-15T15:06:26;9.40;99.70
26599;DHT22;14240;51.064;16.612;2023-02-15T15:08:55;9.30;99.90
26599;DHT22;14240;51.064;16.612;2023-02-15T15:13:58;9.20;99.90
26599;DHT22;14240;51.064;16.612;2023-02-15T15:19:09;9.20;99.90
26599;DHT22;14240;51.064;16.612;2023-02-15T15:33:02;8.90;99.90
26599;DHT22;14240;51.064;16.612;2023-02-15T15:36:09;8.90;99.90
26599;DHT22;14240;51.064;16.612;2023-02-15T15:39:04;8.80;99.90
26599;DHT22;14240;51.064;16.612;2023-02-15T15:41:43;8.70;99.90
26599;DHT22;14240;51.064;16.612;2023-02-15T15:49:24;8.40;99.90
26599;DHT22;14240;51.064;16.612;2023-02-15T15:51:53;8.30;99.90
26599;DHT22;14240;51.064;16.612;2023-02-15T15:54:21;8.30;99.90
26599;DHT22;14240;51.064;16.612;2023-02-15T15:56:51;8.20;99.90
26599;DHT22;14240;51.064;16.612;2023-02-15T15:59:23;8.00;99.90
26599;DHT22;14240;51.064;16.612;2023-02-15T16:01:50;8.00;99.90
26599;DHT22;14240;51.064;16.612;2023-02-15T16:04:27;7.90;99.90
26599;DHT22;14240;51.064;16.612;2023-02-15T16:07:13;7.80;99.90
26599;DHT22;14240;51.064;16.612;2023-02-15T16:09:41;7.70;99.90
26599;DHT22;14240;51.064;16.612;2023-02-15T16:12:18;7.60;99.90
26599;DHT22;14240;51.064;16.612;2023-02-15T16:14:45;7.50;99.90
26599;DHT22;14240;51.064;16.612;2023-02-15T16:17:27;7.50;99.90
26599;DHT22;14240;51.064;16.612;2023-02-15T16:20:03;7.40;99.90
26599;DHT22;14240;51.064;16.612;2023-02-15T16:22:29;7.40;99.90
26599;DHT22;14240;51.064;16.612;2023-02-15T16:25:07;7.30;99.90
26599;DHT22;14240;51.064;16.612;2023-02-15T16:27:43;7.20;99.90
26599;DHT22;14240;51.064;16.612;2023-02-15T16:30:31;7.10;99.90
26599;DHT22;14240;51.064;16.612;2023-02-15T16:33:24;7.10;99.90
26599;DHT22;14240;51.064;16.612;2023-02-15T16:35:59;7.00;99.90
26599;DHT22;14240;51.064;16.612;2023-02-15T16:41:22;6.90;99.90
26599;DHT22;14240;51.064;16.612;2023-02-15T16:43:50;6.80;99.90
26599;DHT22;14240;51.064;16.612;2023-02-15T16:46:37;6.80;99.90
26599;DHT22;14240;51.064;16.612;2023-02-15T16:49:12;7.60;99.90
26599;DHT22;14240;51.064;16.612;2023-02-15T16:51:41;6.70;99.90
26599;DHT22;14240;51.064;16.612;2023-02-15T16:54:17;6.60;99.90
26599;DHT22;14240;51.064;16.612;2023-02-15T16:56:44;6.50;99.90
26599;DHT22;14240;51.064;16.612;2023-02-15T16:59:31;6.50;99.90
26599;DHT22;14240;51.064;16.612;2023-02-15T17:01:59;6.40;99.90
26599;DHT22;14240;51.064;16.612;2023-02-15T17:04:31;6.30;99.90
26599;DHT22;14240;51.064;16.612;2023-02-15T17:07:18;6.20;99.90
26599;DHT22;14240;51.064;16.612;2023-02-15T17:09:55;6.10;99.90
26599;DHT22;14240;51.064;16.612;2023-02-15T17:12:44;6.10;99.90
26599;DHT22;14240;51.064;16.612;2023-02-15T17:15:33;6.00;99.90
26599;DHT22;14240;51.064;16.612;2023-02-15T17:20:38;5.80;99.90
26599;DHT22;14240;51.064;16.612;2023-02-15T17:23:17;5.80;99.90
26599;DHT22;14240;51.064;16.612;2023-02-15T17:25:46;5.70;99.90
26599;DHT22;14240;51.064;16.612;2023-02-15T17:28:18;5.70;99.90
26599;DHT22;14240;51.064;16.612;2023-02-15T17:30:45;5.70;99.90
26599;DHT22;14240;51.064;16.612;2023-02-15T17:36:11;5.60;99.90
26599;DHT22;14240;51.064;16.612;2023-02-15T17:38:41;5.50;99.90
26599;DHT22;14240;51.064;16.612;2023-02-15T17:41:25;5.50;99.90
26599;DHT22;14240;51.064;16.612;2023-02-15T17:43:51;5.40;99.90
26599;DHT22;14240;51.064;16.612;2023-02-15T17:46:16;5.40;99.90
26599;DHT22;14240;51.064;16.612;2023-02-15T17:48:46;5.40;99.90
26599;DHT22;14240;51.064;16.612;2023-02-15T17:51:14;5.40;99.90
26599;DHT22;14240;51.064;16.612;2023-02-15T17:53:41;5.40;99.90
26599;DHT22;14240;51.064;16.612;2023-02-15T17:56:26;5.20;99.90
26599;DHT22;14240;51.064;16.612;2023-02-15T17:58:52;5.20;99.90
26599;DHT22;14240;51.064;16.612;2023-02-15T18:01:18;5.10;99.90
26599;DHT22;14240;51.064;16.612;2023-02-15T18:04:04;5.20;99.90
26599;DHT22;14240;51.064;16.612;2023-02-15T18:06:49;5.20;99.90
26599;DHT22;14240;51.064;16.612;2023-02-15T18:09:33;5.10;99.90
26599;DHT22;14240;51.064;16.612;2023-02-15T18:12:29;5.10;99.90
26599;DHT22;14240;51.064;16.612;2023-02-15T18:14:56;5.10;99.90
26599;DHT22;14240;51.064;16.612;2023-02-15T18:17:32;5.00;99.90
26599;DHT22;14240;51.064;16.612;2023-02-15T18:19:58;4.90;99.90
26599;DHT22;14240;51.064;16.612;2023-02-15T18:22:25;5.00;99.90
26599;DHT22;14240;51.064;16.612;2023-02-15T18:24:52;4.90;99.90
26599;DHT22;14240;51.064;16.612;2023-02-15T18:27:17;4.80;99.90
26599;DHT22;14240;51.064;16.612;2023-02-15T18:29:43;4.80;99.90
26599;DHT22;14240;51.064;16.612;2023-02-15T18:32:15;4.70;99.90
26599;DHT22;14240;51.064;16.612;2023-02-15T18:34:43;4.70;99.90
26599;DHT22;14240;51.064;16.612;2023-02-15T18:37:19;4.60;99.90
26599;DHT22;14240;51.064;16.612;2023-02-15T18:39:52;4.60;99.90
26599;DHT22;14240;51.064;16.612;2023-02-15T18:42:36;4.60;99.90
26599;DHT22;14240;51.064;16.612;2023-02-15T18:45:24;4.50;99.90
26599;DHT22;14240;51.064;16.612;2023-02-15T18:47:52;4.50;99.90
26599;DHT22;14240;51.064;16.612;2023-02-15T18:50:20;4.40;99.90
26599;DHT22;14240;51.064;16.612;2023-02-15T18:52:47;4.40;99.90
26599;DHT22;14240;51.064;16.612;2023-02-15T18:55:21;4.30;99.90
26599;DHT22;14240;51.064;16.612;2023-02-15T18:57:48;3.70;99.90
26599;DHT22;14240;51.064;16.612;2023-02-15T19:00:23;4.30;99.90
26599;DHT22;14240;51.064;16.612;2023-02-15T19:02:50;4.20;99.90
26599;DHT22;14240;51.064;16.612;2023-02-15T19:05:16;4.20;99.90
26599;DHT22;14240;51.064;16.612;2023-02-15T19:07:45;4.20;99.90
26599;DHT22;14240;51.064;16.612;2023-02-15T19:10:19;4.10;99.90
26599;DHT22;14240;51.064;16.612;2023-02-15T19:12:45;4.00;99.90